SKUI/UIB METAR and TAF weather

Enter ICAO airport designator
Station Type Date Time Source
SKUI METAR 2019/06/17 15:00 UTC NOAA

SKUI 171500Z 00000KT 9999 SCT016 29/26 A2980


Station Type Date Time Source
SKUI Decoded METAR 2019/06/17 15:00 UTC NOAA

Quibdo / El Carano, Colombia (SKUI) 05-43N 076-37W
Jun 17, 2019 - 11:00 AM EDT / 2019.06.17 1500 UTC
Wind: Calm:0
Visibility: greater than 7 mile(s):0
Sky conditions: partly cloudy
Temperature: 84 F (29 C)
Dew Point: 78 F (26 C)
Relative Humidity: 83%
Pressure (altimeter): 29.8 in. Hg (1009 hPa)
ob: SKUI 171500Z 00000KT 9999 SCT016 29/26 A2980
cycle: 15

Station Type Date Time Source
SKUI TAF UTC NOAA

Error!

Example: see airport list